sensor_id;sensor_type;location;lat;lon;timestamp;P1;durP1;ratioP1;P2;durP2;ratioP2
10430;SDS011;5262;59.958;17.726;2023-05-02T00:02:04;0.50;;;0.40;;
10430;SDS011;5262;59.958;17.726;2023-05-02T00:04:29;0.60;;;0.40;;
10430;SDS011;5262;59.958;17.726;2023-05-02T00:06:55;0.40;;;0.30;;
10430;SDS011;5262;59.958;17.726;2023-05-02T00:09:21;0.70;;;0.40;;
10430;SDS011;5262;59.958;17.726;2023-05-02T00:11:47;0.80;;;0.50;;
10430;SDS011;5262;59.958;17.726;2023-05-02T00:14:13;0.60;;;0.50;;
10430;SDS011;5262;59.958;17.726;2023-05-02T00:16:38;0.77;;;0.57;;
10430;SDS011;5262;59.958;17.726;2023-05-02T00:19:04;0.90;;;0.80;;
10430;SDS011;5262;59.958;17.726;2023-05-02T00:21:29;0.80;;;0.70;;
10430;SDS011;5262;59.958;17.726;2023-05-02T00:23:57;0.77;;;0.77;;
10430;SDS011;5262;59.958;17.726;2023-05-02T00:26:23;1.07;;;0.80;;
10430;SDS011;5262;59.958;17.726;2023-05-02T00:28:48;1.13;;;0.83;;
10430;SDS011;5262;59.958;17.726;2023-05-02T00:31:14;0.60;;;0.57;;
10430;SDS011;5262;59.958;17.726;2023-05-02T00:33:40;3.20;;;0.77;;
10430;SDS011;5262;59.958;17.726;2023-05-02T00:36:15;1.70;;;0.90;;
10430;SDS011;5262;59.958;17.726;2023-05-02T00:38:42;0.87;;;0.60;;
10430;SDS011;5262;59.958;17.726;2023-05-02T00:41:08;1.10;;;0.70;;
10430;SDS011;5262;59.958;17.726;2023-05-02T00:43:34;0.87;;;0.70;;
10430;SDS011;5262;59.958;17.726;2023-05-02T00:46:01;1.47;;;0.90;;
10430;SDS011;5262;59.958;17.726;2023-05-02T00:48:27;1.30;;;0.60;;
10430;SDS011;5262;59.958;17.726;2023-05-02T00:50:52;1.83;;;0.80;;
10430;SDS011;5262;59.958;17.726;2023-05-02T00:53:20;1.23;;;0.70;;
10430;SDS011;5262;59.958;17.726;2023-05-02T00:55:45;0.67;;;0.67;;
10430;SDS011;5262;59.958;17.726;2023-05-02T00:58:13;0.77;;;0.70;;
10430;SDS011;5262;59.958;17.726;2023-05-02T01:03:41;0.67;;;0.53;;
10430;SDS011;5262;59.958;17.726;2023-05-02T01:09:13;1.00;;;0.60;;
10430;SDS011;5262;59.958;17.726;2023-05-02T01:11:49;0.93;;;0.77;;
10430;SDS011;5262;59.958;17.726;2023-05-02T01:14:33;0.90;;;0.80;;
10430;SDS011;5262;59.958;17.726;2023-05-02T01:17:03;1.20;;;1.10;;
10430;SDS011;5262;59.958;17.726;2023-05-02T01:19:33;1.17;;;0.93;;
10430;SDS011;5262;59.958;17.726;2023-05-02T01:22:01;1.07;;;0.80;;
10430;SDS011;5262;59.958;17.726;2023-05-02T01:24:39;1.27;;;0.70;;
10430;SDS011;5262;59.958;17.726;2023-05-02T01:30:07;1.20;;;0.60;;
10430;SDS011;5262;59.958;17.726;2023-05-02T01:32:36;0.80;;;0.60;;
10430;SDS011;5262;59.958;17.726;2023-05-02T01:35:05;0.70;;;0.60;;
10430;SDS011;5262;59.958;17.726;2023-05-02T01:37:33;1.33;;;0.80;;
10430;SDS011;5262;59.958;17.726;2023-05-02T01:40:00;1.00;;;0.70;;
10430;SDS011;5262;59.958;17.726;2023-05-02T01:42:29;1.00;;;0.80;;
10430;SDS011;5262;59.958;17.726;2023-05-02T01:44:56;0.80;;;0.80;;
10430;SDS011;5262;59.958;17.726;2023-05-02T01:47:23;0.90;;;0.70;;
10430;SDS011;5262;59.958;17.726;2023-05-02T01:49:51;0.90;;;0.70;;
10430;SDS011;5262;59.958;17.726;2023-05-02T01:52:17;0.70;;;0.70;;
10430;SDS011;5262;59.958;17.726;2023-05-02T01:54:45;0.90;;;0.67;;
10430;SDS011;5262;59.958;17.726;2023-05-02T01:57:14;1.60;;;1.50;;
10430;SDS011;5262;59.958;17.726;2023-05-02T01:59:42;1.60;;;0.90;;
10430;SDS011;5262;59.958;17.726;2023-05-02T02:02:09;2.00;;;0.80;;
10430;SDS011;5262;59.958;17.726;2023-05-02T02:04:37;1.87;;;0.90;;
10430;SDS011;5262;59.958;17.726;2023-05-02T02:07:05;0.80;;;0.70;;
10430;SDS011;5262;59.958;17.726;2023-05-02T02:09:33;1.20;;;1.00;;
10430;SDS011;5262;59.958;17.726;2023-05-02T02:12:04;1.80;;;1.20;;
10430;SDS011;5262;59.958;17.726;2023-05-02T02:14:33;2.17;;;0.90;;
10430;SDS011;5262;59.958;17.726;2023-05-02T02:17:11;1.13;;;0.90;;
10430;SDS011;5262;59.958;17.726;2023-05-02T02:19:40;1.10;;;1.00;;
10430;SDS011;5262;59.958;17.726;2023-05-02T02:22:06;4.23;;;1.20;;
10430;SDS011;5262;59.958;17.726;2023-05-02T02:24:34;1.10;;;1.00;;
10430;SDS011;5262;59.958;17.726;2023-05-02T02:27:01;2.53;;;1.00;;
10430;SDS011;5262;59.958;17.726;2023-05-02T02:29:27;1.37;;;1.00;;
10430;SDS011;5262;59.958;17.726;2023-05-02T02:31:53;2.70;;;1.00;;
10430;SDS011;5262;59.958;17.726;2023-05-02T02:34:19;1.70;;;1.00;;
10430;SDS011;5262;59.958;17.726;2023-05-02T02:45:29;1.20;;;1.00;;
10430;SDS011;5262;59.958;17.726;2023-05-02T02:51:09;1.33;;;1.00;;
10430;SDS011;5262;59.958;17.726;2023-05-02T02:53:54;1.27;;;1.00;;
10430;SDS011;5262;59.958;17.726;2023-05-02T02:56:38;1.57;;;1.10;;
10430;SDS011;5262;59.958;17.726;2023-05-02T02:59:13;1.40;;;1.00;;
10430;SDS011;5262;59.958;17.726;2023-05-02T03:01:45;1.30;;;1.10;;
10430;SDS011;5262;59.958;17.726;2023-05-02T03:04:17;1.10;;;1.00;;
10430;SDS011;5262;59.958;17.726;2023-05-02T03:06:43;1.60;;;1.10;;
10430;SDS011;5262;59.958;17.726;2023-05-02T03:09:15;1.27;;;1.00;;
10430;SDS011;5262;59.958;17.726;2023-05-02T03:11:44;1.03;;;0.90;;
10430;SDS011;5262;59.958;17.726;2023-05-02T03:14:10;1.70;;;1.10;;
10430;SDS011;5262;59.958;17.726;2023-05-02T03:16:39;1.00;;;0.90;;
10430;SDS011;5262;59.958;17.726;2023-05-02T03:19:06;1.33;;;0.97;;
10430;SDS011;5262;59.958;17.726;2023-05-02T03:21:32;1.43;;;1.13;;
10430;SDS011;5262;59.958;17.726;2023-05-02T03:23:59;1.90;;;1.03;;
10430;SDS011;5262;59.958;17.726;2023-05-02T03:26:26;1.30;;;1.20;;
10430;SDS011;5262;59.958;17.726;2023-05-02T03:28:52;2.27;;;1.20;;
10430;SDS011;5262;59.958;17.726;2023-05-02T03:31:18;1.30;;;1.20;;
10430;SDS011;5262;59.958;17.726;2023-05-02T03:33:44;3.53;;;1.20;;
10430;SDS011;5262;59.958;17.726;2023-05-02T03:36:10;1.37;;;1.27;;
10430;SDS011;5262;59.958;17.726;2023-05-02T03:38:35;1.63;;;1.40;;
10430;SDS011;5262;59.958;17.726;2023-05-02T03:41:01;1.60;;;1.40;;
10430;SDS011;5262;59.958;17.726;2023-05-02T03:43:28;1.77;;;1.50;;
10430;SDS011;5262;59.958;17.726;2023-05-02T03:45:54;1.57;;;1.40;;
10430;SDS011;5262;59.958;17.726;2023-05-02T03:48:20;1.87;;;1.70;;
10430;SDS011;5262;59.958;17.726;2023-05-02T03:50:45;2.00;;;1.80;;
10430;SDS011;5262;59.958;17.726;2023-05-02T03:53:12;2.03;;;1.83;;
10430;SDS011;5262;59.958;17.726;2023-05-02T03:55:38;4.67;;;1.83;;
10430;SDS011;5262;59.958;17.726;2023-05-02T03:58:04;2.33;;;1.90;;
10430;SDS011;5262;59.958;17.726;2023-05-02T04:00:31;2.83;;;1.97;;
10430;SDS011;5262;59.958;17.726;2023-05-02T04:02:56;1.93;;;1.60;;
10430;SDS011;5262;59.958;17.726;2023-05-02T04:05:22;2.00;;;1.80;;
10430;SDS011;5262;59.958;17.726;2023-05-02T04:07:48;2.03;;;1.83;;
10430;SDS011;5262;59.958;17.726;2023-05-02T04:10:13;2.53;;;2.10;;
10430;SDS011;5262;59.958;17.726;2023-05-02T04:12:42;2.80;;;1.70;;
10430;SDS011;5262;59.958;17.726;2023-05-02T04:15:08;2.37;;;2.17;;
10430;SDS011;5262;59.958;17.726;2023-05-02T04:17:37;2.70;;;1.80;;
10430;SDS011;5262;59.958;17.726;2023-05-02T04:20:03;1.80;;;1.70;;
10430;SDS011;5262;59.958;17.726;2023-05-02T04:22:30;1.87;;;1.60;;
10430;SDS011;5262;59.958;17.726;2023-05-02T04:24:56;2.03;;;1.77;;
10430;SDS011;5262;59.958;17.726;2023-05-02T04:27:21;2.20;;;2.00;;
10430;SDS011;5262;59.958;17.726;2023-05-02T04:29:47;2.60;;;1.90;;
10430;SDS011;5262;59.958;17.726;2023-05-02T04:32:14;2.27;;;1.80;;
10430;SDS011;5262;59.958;17.726;2023-05-02T04:34:40;2.57;;;1.50;;
10430;SDS011;5262;59.958;17.726;2023-05-02T04:37:05;1.97;;;1.47;;
10430;SDS011;5262;59.958;17.726;2023-05-02T04:39:31;1.73;;;1.50;;
10430;SDS011;5262;59.958;17.726;2023-05-02T04:41:57;2.17;;;1.60;;
10430;SDS011;5262;59.958;17.726;2023-05-02T04:44:23;1.80;;;1.70;;
10430;SDS011;5262;59.958;17.726;2023-05-02T04:46:49;2.07;;;1.63;;
10430;SDS011;5262;59.958;17.726;2023-05-02T04:49:14;1.50;;;1.40;;
10430;SDS011;5262;59.958;17.726;2023-05-02T04:51:40;1.50;;;1.33;;
10430;SDS011;5262;59.958;17.726;2023-05-02T04:54:06;1.97;;;1.50;;
10430;SDS011;5262;59.958;17.726;2023-05-02T04:56:31;1.53;;;1.40;;
10430;SDS011;5262;59.958;17.726;2023-05-02T04:58:57;1.50;;;1.40;;
10430;SDS011;5262;59.958;17.726;2023-05-02T05:01:24;2.30;;;1.70;;
10430;SDS011;5262;59.958;17.726;2023-05-02T05:03:52;1.60;;;1.40;;
10430;SDS011;5262;59.958;17.726;2023-05-02T05:06:18;1.90;;;1.70;;
10430;SDS011;5262;59.958;17.726;2023-05-02T05:08:44;1.70;;;1.43;;
10430;SDS011;5262;59.958;17.726;2023-05-02T05:11:10;2.23;;;1.70;;
10430;SDS011;5262;59.958;17.726;2023-05-02T05:13:36;2.80;;;1.70;;
10430;SDS011;5262;59.958;17.726;2023-05-02T05:16:02;3.53;;;1.70;;
10430;SDS011;5262;59.958;17.726;2023-05-02T05:18:28;2.27;;;1.27;;
10430;SDS011;5262;59.958;17.726;2023-05-02T05:21:04;2.90;;;1.37;;
10430;SDS011;5262;59.958;17.726;2023-05-02T05:23:31;4.60;;;1.70;;
10430;SDS011;5262;59.958;17.726;2023-05-02T05:25:57;1.90;;;1.40;;
10430;SDS011;5262;59.958;17.726;2023-05-02T05:28:23;4.57;;;1.80;;
10430;SDS011;5262;59.958;17.726;2023-05-02T05:30:48;1.50;;;1.37;;
10430;SDS011;5262;59.958;17.726;2023-05-02T05:33:15;2.17;;;1.70;;
10430;SDS011;5262;59.958;17.726;2023-05-02T05:35:41;4.23;;;1.90;;
10430;SDS011;5262;59.958;17.726;2023-05-02T05:38:07;2.27;;;1.53;;
10430;SDS011;5262;59.958;17.726;2023-05-02T05:40:32;1.87;;;1.77;;
10430;SDS011;5262;59.958;17.726;2023-05-02T05:42:58;2.03;;;1.70;;
10430;SDS011;5262;59.958;17.726;2023-05-02T05:45:24;1.97;;;1.73;;
10430;SDS011;5262;59.958;17.726;2023-05-02T05:47:49;1.70;;;1.60;;
10430;SDS011;5262;59.958;17.726;2023-05-02T05:50:15;2.47;;;1.60;;
10430;SDS011;5262;59.958;17.726;2023-05-02T05:52:41;1.97;;;1.50;;
10430;SDS011;5262;59.958;17.726;2023-05-02T05:55:07;1.90;;;1.60;;
10430;SDS011;5262;59.958;17.726;2023-05-02T05:57:33;2.37;;;1.77;;
10430;SDS011;5262;59.958;17.726;2023-05-02T05:59:58;1.73;;;1.37;;
10430;SDS011;5262;59.958;17.726;2023-05-02T06:02:24;1.37;;;1.27;;
10430;SDS011;5262;59.958;17.726;2023-05-02T06:04:50;2.67;;;1.60;;
10430;SDS011;5262;59.958;17.726;2023-05-02T06:07:15;2.77;;;1.60;;
10430;SDS011;5262;59.958;17.726;2023-05-02T06:09:41;1.50;;;1.37;;
10430;SDS011;5262;59.958;17.726;2023-05-02T06:12:06;1.77;;;1.27;;
10430;SDS011;5262;59.958;17.726;2023-05-02T06:14:32;1.80;;;1.40;;
10430;SDS011;5262;59.958;17.726;2023-05-02T06:16:58;1.10;;;1.00;;
10430;SDS011;5262;59.958;17.726;2023-05-02T06:19:24;1.90;;;1.30;;
10430;SDS011;5262;59.958;17.726;2023-05-02T06:21:50;1.50;;;1.30;;
10430;SDS011;5262;59.958;17.726;2023-05-02T06:24:16;3.13;;;1.47;;
10430;SDS011;5262;59.958;17.726;2023-05-02T06:26:41;2.00;;;1.30;;
10430;SDS011;5262;59.958;17.726;2023-05-02T06:29:07;2.17;;;1.87;;
10430;SDS011;5262;59.958;17.726;2023-05-02T06:31:32;1.63;;;1.20;;
10430;SDS011;5262;59.958;17.726;2023-05-02T06:33:58;1.20;;;1.03;;
10430;SDS011;5262;59.958;17.726;2023-05-02T06:36:23;1.23;;;1.13;;
10430;SDS011;5262;59.958;17.726;2023-05-02T06:38:49;1.57;;;1.10;;
10430;SDS011;5262;59.958;17.726;2023-05-02T06:41:15;2.20;;;1.17;;
10430;SDS011;5262;59.958;17.726;2023-05-02T06:43:41;1.40;;;1.03;;
10430;SDS011;5262;59.958;17.726;2023-05-02T06:46:07;1.30;;;1.00;;
10430;SDS011;5262;59.958;17.726;2023-05-02T06:48:36;1.10;;;1.00;;
10430;SDS011;5262;59.958;17.726;2023-05-02T06:51:01;1.40;;;1.10;;
10430;SDS011;5262;59.958;17.726;2023-05-02T06:53:28;1.10;;;0.90;;
10430;SDS011;5262;59.958;17.726;2023-05-02T06:55:54;1.20;;;1.10;;
10430;SDS011;5262;59.958;17.726;2023-05-02T06:58:20;1.20;;;1.00;;
10430;SDS011;5262;59.958;17.726;2023-05-02T07:00:46;0.73;;;0.70;;
10430;SDS011;5262;59.958;17.726;2023-05-02T07:03:12;0.97;;;0.73;;
10430;SDS011;5262;59.958;17.726;2023-05-02T07:05:38;1.67;;;1.20;;
10430;SDS011;5262;59.958;17.726;2023-05-02T07:08:04;1.37;;;0.90;;
10430;SDS011;5262;59.958;17.726;2023-05-02T07:10:30;1.40;;;0.90;;
10430;SDS011;5262;59.958;17.726;2023-05-02T07:12:56;1.20;;;1.00;;
10430;SDS011;5262;59.958;17.726;2023-05-02T07:15:21;1.73;;;0.90;;
10430;SDS011;5262;59.958;17.726;2023-05-02T07:17:47;1.00;;;0.90;;
10430;SDS011;5262;59.958;17.726;2023-05-02T07:20:13;1.53;;;1.20;;
10430;SDS011;5262;59.958;17.726;2023-05-02T07:22:40;1.20;;;1.10;;
10430;SDS011;5262;59.958;17.726;2023-05-02T07:25:06;1.53;;;1.10;;
10430;SDS011;5262;59.958;17.726;2023-05-02T07:27:32;1.53;;;1.07;;
10430;SDS011;5262;59.958;17.726;2023-05-02T07:29:58;1.60;;;1.13;;
10430;SDS011;5262;59.958;17.726;2023-05-02T07:32:23;1.20;;;1.10;;
10430;SDS011;5262;59.958;17.726;2023-05-02T07:34:50;1.27;;;0.80;;
10430;SDS011;5262;59.958;17.726;2023-05-02T07:37:20;2.50;;;1.30;;
10430;SDS011;5262;59.958;17.726;2023-05-02T07:39:46;1.87;;;1.17;;
10430;SDS011;5262;59.958;17.726;2023-05-02T07:42:11;1.67;;;1.57;;
10430;SDS011;5262;59.958;17.726;2023-05-02T07:44:37;3.47;;;1.20;;
10430;SDS011;5262;59.958;17.726;2023-05-02T07:47:03;1.40;;;1.00;;
10430;SDS011;5262;59.958;17.726;2023-05-02T07:49:28;1.40;;;0.90;;
10430;SDS011;5262;59.958;17.726;2023-05-02T07:51:55;2.53;;;1.27;;
10430;SDS011;5262;59.958;17.726;2023-05-02T07:54:21;1.53;;;1.13;;
10430;SDS011;5262;59.958;17.726;2023-05-02T07:56:46;1.97;;;1.10;;
10430;SDS011;5262;59.958;17.726;2023-05-02T07:59:13;1.90;;;0.90;;
10430;SDS011;5262;59.958;17.726;2023-05-02T08:01:39;1.10;;;0.80;;
10430;SDS011;5262;59.958;17.726;2023-05-02T08:04:05;1.67;;;0.87;;
10430;SDS011;5262;59.958;17.726;2023-05-02T08:06:31;1.33;;;1.00;;
10430;SDS011;5262;59.958;17.726;2023-05-02T08:08:57;2.40;;;1.00;;
10430;SDS011;5262;59.958;17.726;2023-05-02T08:11:23;1.10;;;1.00;;
10430;SDS011;5262;59.958;17.726;2023-05-02T08:13:52;1.50;;;0.80;;
10430;SDS011;5262;59.958;17.726;2023-05-02T08:16:17;2.13;;;0.93;;
10430;SDS011;5262;59.958;17.726;2023-05-02T08:18:43;1.60;;;0.80;;
10430;SDS011;5262;59.958;17.726;2023-05-02T08:21:09;2.07;;;0.80;;
10430;SDS011;5262;59.958;17.726;2023-05-02T08:23:35;1.00;;;0.80;;
10430;SDS011;5262;59.958;17.726;2023-05-02T08:26:01;1.00;;;0.70;;
10430;SDS011;5262;59.958;17.726;2023-05-02T08:28:27;0.97;;;0.80;;
10430;SDS011;5262;59.958;17.726;2023-05-02T08:30:53;2.83;;;0.80;;
10430;SDS011;5262;59.958;17.726;2023-05-02T08:33:19;1.27;;;0.87;;
10430;SDS011;5262;59.958;17.726;2023-05-02T08:35:45;1.93;;;0.70;;
10430;SDS011;5262;59.958;17.726;2023-05-02T08:38:10;1.00;;;0.70;;
10430;SDS011;5262;59.958;17.726;2023-05-02T08:40:36;1.10;;;0.70;;
10430;SDS011;5262;59.958;17.726;2023-05-02T08:43:03;1.00;;;0.70;;
10430;SDS011;5262;59.958;17.726;2023-05-02T08:45:30;1.53;;;0.80;;
10430;SDS011;5262;59.958;17.726;2023-05-02T08:48:06;1.43;;;0.87;;
10430;SDS011;5262;59.958;17.726;2023-05-02T08:50:37;1.10;;;0.67;;
10430;SDS011;5262;59.958;17.726;2023-05-02T08:53:06;1.10;;;0.87;;
10430;SDS011;5262;59.958;17.726;2023-05-02T08:55:33;2.23;;;0.90;;
10430;SDS011;5262;59.958;17.726;2023-05-02T08:58:04;0.83;;;0.80;;
10430;SDS011;5262;59.958;17.726;2023-05-02T09:00:31;1.13;;;0.90;;
10430;SDS011;5262;59.958;17.726;2023-05-02T09:03:39;1.50;;;0.83;;
10430;SDS011;5262;59.958;17.726;2023-05-02T09:05:52;1.97;;;0.97;;
10430;SDS011;5262;59.958;17.726;2023-05-02T09:08:23;0.90;;;0.60;;
10430;SDS011;5262;59.958;17.726;2023-05-02T09:10:49;0.90;;;0.60;;
10430;SDS011;5262;59.958;17.726;2023-05-02T09:18:33;1.10;;;0.90;;
10430;SDS011;5262;59.958;17.726;2023-05-02T09:21:04;2.05;;;0.68;;
10430;SDS011;5262;59.958;17.726;2023-05-02T09:23:36;1.40;;;0.80;;
10430;SDS011;5262;59.958;17.726;2023-05-02T09:26:25;0.75;;;0.63;;
10430;SDS011;5262;59.958;17.726;2023-05-02T09:28:54;0.73;;;0.73;;
10430;SDS011;5262;59.958;17.726;2023-05-02T09:31:21;0.80;;;0.80;;
10430;SDS011;5262;59.958;17.726;2023-05-02T09:33:50;1.50;;;0.93;;
10430;SDS011;5262;59.958;17.726;2023-05-02T09:36:17;0.90;;;0.63;;
10430;SDS011;5262;59.958;17.726;2023-05-02T09:38:45;1.08;;;0.68;;
10430;SDS011;5262;59.958;17.726;2023-05-02T09:41:12;1.23;;;0.75;;
10430;SDS011;5262;59.958;17.726;2023-05-02T09:43:38;2.08;;;0.70;;
10430;SDS011;5262;59.958;17.726;2023-05-02T09:46:07;1.00;;;0.60;;
10430;SDS011;5262;59.958;17.726;2023-05-02T09:51:32;0.90;;;0.67;;
10430;SDS011;5262;59.958;17.726;2023-05-02T09:53:58;1.50;;;0.80;;
10430;SDS011;5262;59.958;17.726;2023-05-02T09:56:24;1.10;;;0.50;;
10430;SDS011;5262;59.958;17.726;2023-05-02T09:58:49;0.60;;;0.53;;
10430;SDS011;5262;59.958;17.726;2023-05-02T10:01:18;1.63;;;0.60;;
10430;SDS011;5262;59.958;17.726;2023-05-02T10:03:47;4.30;;;0.70;;
10430;SDS011;5262;59.958;17.726;2023-05-02T10:06:17;1.10;;;0.50;;
10430;SDS011;5262;59.958;17.726;2023-05-02T10:08:44;1.97;;;0.50;;
10430;SDS011;5262;59.958;17.726;2023-05-02T10:11:11;1.50;;;0.70;;
10430;SDS011;5262;59.958;17.726;2023-05-02T10:13:38;1.40;;;0.70;;
10430;SDS011;5262;59.958;17.726;2023-05-02T10:16:06;1.60;;;0.90;;
10430;SDS011;5262;59.958;17.726;2023-05-02T10:18:39;0.68;;;0.50;;
10430;SDS011;5262;59.958;17.726;2023-05-02T10:21:27;1.05;;;0.50;;
10430;SDS011;5262;59.958;17.726;2023-05-02T10:23:55;1.63;;;0.70;;
10430;SDS011;5262;59.958;17.726;2023-05-02T10:26:21;1.57;;;0.50;;
10430;SDS011;5262;59.958;17.726;2023-05-02T10:28:47;1.03;;;0.60;;
10430;SDS011;5262;59.958;17.726;2023-05-02T10:31:14;0.87;;;0.60;;
10430;SDS011;5262;59.958;17.726;2023-05-02T10:33:41;0.85;;;0.52;;
10430;SDS011;5262;59.958;17.726;2023-05-02T10:36:08;1.77;;;0.50;;
10430;SDS011;5262;59.958;17.726;2023-05-02T10:38:37;4.65;;;0.50;;
10430;SDS011;5262;59.958;17.726;2023-05-02T10:41:22;6.32;;;0.70;;
10430;SDS011;5262;59.958;17.726;2023-05-02T10:43:50;2.88;;;0.70;;
10430;SDS011;5262;59.958;17.726;2023-05-02T10:46:30;2.38;;;0.60;;
10430;SDS011;5262;59.958;17.726;2023-05-02T10:49:10;0.70;;;0.60;;
10430;SDS011;5262;59.958;17.726;2023-05-02T10:51:37;2.13;;;0.70;;
10430;SDS011;5262;59.958;17.726;2023-05-02T10:59:40;3.80;;;0.60;;
10430;SDS011;5262;59.958;17.726;2023-05-02T11:05:03;1.52;;;0.65;;
10430;SDS011;5262;59.958;17.726;2023-05-02T11:07:31;2.08;;;0.65;;
10430;SDS011;5262;59.958;17.726;2023-05-02T11:12:42;0.60;;;0.50;;
10430;SDS011;5262;59.958;17.726;2023-05-02T11:20:28;4.45;;;0.65;;
10430;SDS011;5262;59.958;17.726;2023-05-02T11:22:56;1.55;;;0.40;;
10430;SDS011;5262;59.958;17.726;2023-05-02T11:27:56;0.60;;;0.40;;
10430;SDS011;5262;59.958;17.726;2023-05-02T11:35:30;3.57;;;0.50;;
10430;SDS011;5262;59.958;17.726;2023-05-02T11:40:23;2.40;;;0.73;;
10430;SDS011;5262;59.958;17.726;2023-05-02T11:42:50;0.80;;;0.40;;
10430;SDS011;5262;59.958;17.726;2023-05-02T11:45:15;0.50;;;0.40;;
10430;SDS011;5262;59.958;17.726;2023-05-02T11:47:41;1.13;;;0.40;;
10430;SDS011;5262;59.958;17.726;2023-05-02T11:50:07;1.07;;;0.50;;
10430;SDS011;5262;59.958;17.726;2023-05-02T11:52:41;0.90;;;0.40;;
10430;SDS011;5262;59.958;17.726;2023-05-02T11:55:11;2.30;;;0.60;;
10430;SDS011;5262;59.958;17.726;2023-05-02T11:57:38;2.27;;;0.57;;
10430;SDS011;5262;59.958;17.726;2023-05-02T12:00:04;1.23;;;0.30;;
10430;SDS011;5262;59.958;17.726;2023-05-02T12:02:37;0.60;;;0.30;;
10430;SDS011;5262;59.958;17.726;2023-05-02T12:05:07;1.23;;;0.30;;
10430;SDS011;5262;59.958;17.726;2023-05-02T12:07:37;0.63;;;0.40;;
10430;SDS011;5262;59.958;17.726;2023-05-02T12:10:09;1.57;;;0.50;;
10430;SDS011;5262;59.958;17.726;2023-05-02T12:12:36;1.90;;;0.30;;
10430;SDS011;5262;59.958;17.726;2023-05-02T12:15:07;0.60;;;0.30;;
10430;SDS011;5262;59.958;17.726;2023-05-02T12:17:36;0.45;;;0.30;;
10430;SDS011;5262;59.958;17.726;2023-05-02T12:20:07;3.00;;;0.40;;
10430;SDS011;5262;59.958;17.726;2023-05-02T12:22:34;2.07;;;0.33;;
10430;SDS011;5262;59.958;17.726;2023-05-02T12:25:00;1.47;;;0.40;;
10430;SDS011;5262;59.958;17.726;2023-05-02T12:27:28;2.28;;;0.40;;
10430;SDS011;5262;59.958;17.726;2023-05-02T12:29:53;1.57;;;0.30;;
10430;SDS011;5262;59.958;17.726;2023-05-02T12:32:31;1.80;;;0.40;;
10430;SDS011;5262;59.958;17.726;2023-05-02T12:34:58;1.43;;;0.40;;
10430;SDS011;5262;59.958;17.726;2023-05-02T12:37:26;0.97;;;0.30;;
10430;SDS011;5262;59.958;17.726;2023-05-02T12:39:52;0.50;;;0.40;;
10430;SDS011;5262;59.958;17.726;2023-05-02T12:42:20;0.70;;;0.30;;
10430;SDS011;5262;59.958;17.726;2023-05-02T12:44:48;0.60;;;0.40;;
10430;SDS011;5262;59.958;17.726;2023-05-02T12:47:16;1.57;;;0.40;;
10430;SDS011;5262;59.958;17.726;2023-05-02T12:49:56;2.50;;;0.40;;
10430;SDS011;5262;59.958;17.726;2023-05-02T12:55:16;1.20;;;0.40;;
10430;SDS011;5262;59.958;17.726;2023-05-02T12:57:41;0.40;;;0.30;;
10430;SDS011;5262;59.958;17.726;2023-05-02T13:00:07;1.67;;;0.33;;
10430;SDS011;5262;59.958;17.726;2023-05-02T13:02:34;2.53;;;0.40;;
10430;SDS011;5262;59.958;17.726;2023-05-02T13:04:59;0.53;;;0.40;;
10430;SDS011;5262;59.958;17.726;2023-05-02T13:07:25;0.30;;;0.27;;
10430;SDS011;5262;59.958;17.726;2023-05-02T13:09:50;0.47;;;0.20;;
10430;SDS011;5262;59.958;17.726;2023-05-02T13:12:16;0.40;;;0.30;;
10430;SDS011;5262;59.958;17.726;2023-05-02T13:14:42;0.47;;;0.30;;
10430;SDS011;5262;59.958;17.726;2023-05-02T13:17:08;4.50;;;0.40;;
10430;SDS011;5262;59.958;17.726;2023-05-02T13:19:34;4.67;;;0.50;;
10430;SDS011;5262;59.958;17.726;2023-05-02T13:21:59;0.70;;;0.25;;
10430;SDS011;5262;59.958;17.726;2023-05-02T13:24:25;2.67;;;0.30;;
10430;SDS011;5262;59.958;17.726;2023-05-02T13:26:51;0.33;;;0.20;;
10430;SDS011;5262;59.958;17.726;2023-05-02T13:29:17;0.30;;;0.20;;
10430;SDS011;5262;59.958;17.726;2023-05-02T13:31:42;1.67;;;0.73;;
10430;SDS011;5262;59.958;17.726;2023-05-02T13:34:08;2.20;;;0.77;;
10430;SDS011;5262;59.958;17.726;2023-05-02T13:36:34;0.73;;;0.50;;
10430;SDS011;5262;59.958;17.726;2023-05-02T13:39:01;0.40;;;0.30;;
10430;SDS011;5262;59.958;17.726;2023-05-02T13:41:27;2.00;;;0.30;;
10430;SDS011;5262;59.958;17.726;2023-05-02T13:43:52;0.60;;;0.40;;
10430;SDS011;5262;59.958;17.726;2023-05-02T13:46:18;1.00;;;0.50;;
10430;SDS011;5262;59.958;17.726;2023-05-02T13:48:43;0.67;;;0.57;;
10430;SDS011;5262;59.958;17.726;2023-05-02T13:51:09;0.60;;;0.40;;
10430;SDS011;5262;59.958;17.726;2023-05-02T13:53:35;0.60;;;0.40;;
10430;SDS011;5262;59.958;17.726;2023-05-02T13:56:01;0.67;;;0.40;;
10430;SDS011;5262;59.958;17.726;2023-05-02T13:58:27;3.27;;;0.63;;
10430;SDS011;5262;59.958;17.726;2023-05-02T14:00:52;2.70;;;0.53;;
10430;SDS011;5262;59.958;17.726;2023-05-02T14:03:18;0.60;;;0.40;;
10430;SDS011;5262;59.958;17.726;2023-05-02T14:05:43;1.30;;;0.60;;
10430;SDS011;5262;59.958;17.726;2023-05-02T14:08:09;0.77;;;0.50;;
10430;SDS011;5262;59.958;17.726;2023-05-02T14:10:35;1.00;;;0.60;;
10430;SDS011;5262;59.958;17.726;2023-05-02T14:13:02;1.93;;;1.03;;
10430;SDS011;5262;59.958;17.726;2023-05-02T14:15:28;7.07;;;0.60;;
10430;SDS011;5262;59.958;17.726;2023-05-02T14:17:54;4.73;;;0.77;;
10430;SDS011;5262;59.958;17.726;2023-05-02T14:20:19;0.63;;;0.40;;
10430;SDS011;5262;59.958;17.726;2023-05-02T14:22:47;0.43;;;0.33;;
10430;SDS011;5262;59.958;17.726;2023-05-02T14:25:13;0.70;;;0.40;;
10430;SDS011;5262;59.958;17.726;2023-05-02T14:27:39;2.13;;;0.50;;
10430;SDS011;5262;59.958;17.726;2023-05-02T14:30:06;1.17;;;0.50;;
10430;SDS011;5262;59.958;17.726;2023-05-02T14:32:33;2.70;;;0.40;;
10430;SDS011;5262;59.958;17.726;2023-05-02T14:34:58;1.57;;;0.40;;
10430;SDS011;5262;59.958;17.726;2023-05-02T14:37:25;1.10;;;0.40;;
10430;SDS011;5262;59.958;17.726;2023-05-02T14:39:51;0.30;;;0.30;;
10430;SDS011;5262;59.958;17.726;2023-05-02T14:42:20;0.33;;;0.30;;
10430;SDS011;5262;59.958;17.726;2023-05-02T14:44:46;0.50;;;0.40;;
10430;SDS011;5262;59.958;17.726;2023-05-02T14:47:12;2.07;;;0.50;;
10430;SDS011;5262;59.958;17.726;2023-05-02T14:49:37;0.40;;;0.40;;
10430;SDS011;5262;59.958;17.726;2023-05-02T14:52:03;4.43;;;0.50;;
10430;SDS011;5262;59.958;17.726;2023-05-02T14:54:29;2.27;;;0.30;;
10430;SDS011;5262;59.958;17.726;2023-05-02T14:56:54;0.40;;;0.30;;
10430;SDS011;5262;59.958;17.726;2023-05-02T14:59:20;0.83;;;0.50;;
10430;SDS011;5262;59.958;17.726;2023-05-02T15:01:46;1.03;;;0.40;;
10430;SDS011;5262;59.958;17.726;2023-05-02T15:04:12;1.20;;;0.40;;
10430;SDS011;5262;59.958;17.726;2023-05-02T15:06:38;0.50;;;0.30;;
10430;SDS011;5262;59.958;17.726;2023-05-02T15:09:04;0.43;;;0.40;;
10430;SDS011;5262;59.958;17.726;2023-05-02T15:11:30;1.13;;;0.40;;
10430;SDS011;5262;59.958;17.726;2023-05-02T15:13:55;1.43;;;0.40;;
10430;SDS011;5262;59.958;17.726;2023-05-02T15:16:22;0.63;;;0.47;;
10430;SDS011;5262;59.958;17.726;2023-05-02T15:18:47;1.97;;;1.40;;
10430;SDS011;5262;59.958;17.726;2023-05-02T15:21:13;2.33;;;1.40;;
10430;SDS011;5262;59.958;17.726;2023-05-02T15:23:39;1.83;;;1.10;;
10430;SDS011;5262;59.958;17.726;2023-05-02T15:26:04;1.63;;;0.70;;
10430;SDS011;5262;59.958;17.726;2023-05-02T15:28:30;1.70;;;0.60;;
10430;SDS011;5262;59.958;17.726;2023-05-02T15:30:56;0.70;;;0.50;;
10430;SDS011;5262;59.958;17.726;2023-05-02T15:33:21;1.17;;;0.43;;
10430;SDS011;5262;59.958;17.726;2023-05-02T15:35:54;0.70;;;0.50;;
10430;SDS011;5262;59.958;17.726;2023-05-02T15:38:22;0.83;;;0.30;;
10430;SDS011;5262;59.958;17.726;2023-05-02T15:40:52;2.13;;;0.43;;
10430;SDS011;5262;59.958;17.726;2023-05-02T15:43:19;0.83;;;0.70;;
10430;SDS011;5262;59.958;17.726;2023-05-02T15:45:55;1.63;;;0.43;;
10430;SDS011;5262;59.958;17.726;2023-05-02T15:48:22;2.90;;;0.40;;